sensor_id;sensor_type;location;lat;lon;timestamp;temperature;humidity
22235;DHT22;11286;45.596;5.284;2023-05-07T00:01:49;18.90;99.90
22235;DHT22;11286;45.596;5.284;2023-05-07T00:04:15;18.80;99.90
22235;DHT22;11286;45.596;5.284;2023-05-07T00:06:41;18.80;99.90
22235;DHT22;11286;45.596;5.284;2023-05-07T00:09:06;18.90;99.90
22235;DHT22;11286;45.596;5.284;2023-05-07T00:11:32;18.90;99.90
22235;DHT22;11286;45.596;5.284;2023-05-07T00:13:58;19.00;99.90
22235;DHT22;11286;45.596;5.284;2023-05-07T00:16:24;18.90;99.90
22235;DHT22;11286;45.596;5.284;2023-05-07T00:18:50;18.80;99.90
22235;DHT22;11286;45.596;5.284;2023-05-07T00:21:16;18.80;99.90
22235;DHT22;11286;45.596;5.284;2023-05-07T00:23:41;18.90;99.90
22235;DHT22;11286;45.596;5.284;2023-05-07T00:26:07;18.80;99.90
22235;DHT22;11286;45.596;5.284;2023-05-07T00:28:33;18.80;99.90
22235;DHT22;11286;45.596;5.284;2023-05-07T00:30:58;18.80;99.90
22235;DHT22;11286;45.596;5.284;2023-05-07T00:33:24;18.90;99.90
22235;DHT22;11286;45.596;5.284;2023-05-07T00:35:52;19.00;99.90
22235;DHT22;11286;45.596;5.284;2023-05-07T00:38:17;19.20;99.90
22235;DHT22;11286;45.596;5.284;2023-05-07T00:40:43;19.20;99.90
22235;DHT22;11286;45.596;5.284;2023-05-07T00:43:08;19.10;99.90
22235;DHT22;11286;45.596;5.284;2023-05-07T00:45:34;19.30;99.90
22235;DHT22;11286;45.596;5.284;2023-05-07T00:48:00;19.20;99.90
22235;DHT22;11286;45.596;5.284;2023-05-07T00:50:28;19.00;99.90
22235;DHT22;11286;45.596;5.284;2023-05-07T00:52:54;19.10;99.90
22235;DHT22;11286;45.596;5.284;2023-05-07T00:55:21;19.10;99.90
22235;DHT22;11286;45.596;5.284;2023-05-07T00:57:47;19.00;99.90
22235;DHT22;11286;45.596;5.284;2023-05-07T01:00:13;19.00;99.90
22235;DHT22;11286;45.596;5.284;2023-05-07T01:02:39;18.90;99.90
22235;DHT22;11286;45.596;5.284;2023-05-07T01:05:08;18.80;99.90
22235;DHT22;11286;45.596;5.284;2023-05-07T01:07:35;18.80;99.90
22235;DHT22;11286;45.596;5.284;2023-05-07T01:10:03;18.90;99.90
22235;DHT22;11286;45.596;5.284;2023-05-07T01:12:30;18.90;99.90
22235;DHT22;11286;45.596;5.284;2023-05-07T01:14:57;18.80;99.90
22235;DHT22;11286;45.596;5.284;2023-05-07T01:17:23;18.70;99.90
22235;DHT22;11286;45.596;5.284;2023-05-07T01:19:49;18.90;99.90
22235;DHT22;11286;45.596;5.284;2023-05-07T01:22:16;18.80;99.90
22235;DHT22;11286;45.596;5.284;2023-05-07T01:24:44;18.80;99.90
22235;DHT22;11286;45.596;5.284;2023-05-07T01:27:09;18.80;99.90
22235;DHT22;11286;45.596;5.284;2023-05-07T01:29:35;18.70;99.90
22235;DHT22;11286;45.596;5.284;2023-05-07T01:32:01;18.70;99.90
22235;DHT22;11286;45.596;5.284;2023-05-07T01:34:31;18.80;99.90
22235;DHT22;11286;45.596;5.284;2023-05-07T01:36:59;18.80;99.90
22235;DHT22;11286;45.596;5.284;2023-05-07T01:39:26;18.70;99.90
22235;DHT22;11286;45.596;5.284;2023-05-07T01:41:56;18.70;99.90
22235;DHT22;11286;45.596;5.284;2023-05-07T01:44:22;18.80;99.90
22235;DHT22;11286;45.596;5.284;2023-05-07T01:46:49;18.80;99.90
22235;DHT22;11286;45.596;5.284;2023-05-07T01:49:16;18.90;99.90
22235;DHT22;11286;45.596;5.284;2023-05-07T01:51:41;18.90;99.90
22235;DHT22;11286;45.596;5.284;2023-05-07T01:54:08;18.90;99.90
22235;DHT22;11286;45.596;5.284;2023-05-07T01:56:33;19.00;99.90
22235;DHT22;11286;45.596;5.284;2023-05-07T01:58:59;18.90;99.90
22235;DHT22;11286;45.596;5.284;2023-05-07T02:01:25;18.90;99.90
22235;DHT22;11286;45.596;5.284;2023-05-07T02:03:51;19.00;99.90
22235;DHT22;11286;45.596;5.284;2023-05-07T02:06:17;18.90;99.90
22235;DHT22;11286;45.596;5.284;2023-05-07T02:08:42;18.90;99.90
22235;DHT22;11286;45.596;5.284;2023-05-07T02:11:08;18.80;99.90
22235;DHT22;11286;45.596;5.284;2023-05-07T02:13:34;18.90;99.90
22235;DHT22;11286;45.596;5.284;2023-05-07T02:16:00;18.90;99.90
22235;DHT22;11286;45.596;5.284;2023-05-07T02:18:26;18.90;99.90
22235;DHT22;11286;45.596;5.284;2023-05-07T02:20:52;18.80;99.90
22235;DHT22;11286;45.596;5.284;2023-05-07T02:23:17;18.70;99.90
22235;DHT22;11286;45.596;5.284;2023-05-07T02:25:43;18.60;99.90
22235;DHT22;11286;45.596;5.284;2023-05-07T02:28:08;18.50;99.90
22235;DHT22;11286;45.596;5.284;2023-05-07T02:30:36;18.50;99.90
22235;DHT22;11286;45.596;5.284;2023-05-07T02:33:02;18.30;99.90
22235;DHT22;11286;45.596;5.284;2023-05-07T02:35:28;18.20;99.90
22235;DHT22;11286;45.596;5.284;2023-05-07T02:37:54;18.10;99.90
22235;DHT22;11286;45.596;5.284;2023-05-07T02:40:19;18.20;99.90
22235;DHT22;11286;45.596;5.284;2023-05-07T02:42:45;18.10;99.90
22235;DHT22;11286;45.596;5.284;2023-05-07T02:45:11;18.00;99.90
22235;DHT22;11286;45.596;5.284;2023-05-07T02:47:36;17.90;99.90
22235;DHT22;11286;45.596;5.284;2023-05-07T02:50:02;17.90;99.90
22235;DHT22;11286;45.596;5.284;2023-05-07T02:52:28;17.90;99.90
22235;DHT22;11286;45.596;5.284;2023-05-07T02:54:54;18.00;99.90
22235;DHT22;11286;45.596;5.284;2023-05-07T02:57:21;17.90;99.90
22235;DHT22;11286;45.596;5.284;2023-05-07T02:59:46;18.00;99.90
22235;DHT22;11286;45.596;5.284;2023-05-07T03:02:12;18.00;99.90
22235;DHT22;11286;45.596;5.284;2023-05-07T03:04:39;17.70;99.90
22235;DHT22;11286;45.596;5.284;2023-05-07T03:07:04;17.80;99.90
22235;DHT22;11286;45.596;5.284;2023-05-07T03:09:30;17.70;99.90
22235;DHT22;11286;45.596;5.284;2023-05-07T03:11:56;17.70;99.90
22235;DHT22;11286;45.596;5.284;2023-05-07T03:14:22;17.70;99.90
22235;DHT22;11286;45.596;5.284;2023-05-07T03:16:49;17.60;99.90
22235;DHT22;11286;45.596;5.284;2023-05-07T03:19:14;17.60;99.90
22235;DHT22;11286;45.596;5.284;2023-05-07T03:21:40;17.60;99.90
22235;DHT22;11286;45.596;5.284;2023-05-07T03:24:06;17.50;99.90
22235;DHT22;11286;45.596;5.284;2023-05-07T03:26:31;17.50;99.90
22235;DHT22;11286;45.596;5.284;2023-05-07T03:28:57;17.50;99.90
22235;DHT22;11286;45.596;5.284;2023-05-07T03:31:23;17.40;99.90
22235;DHT22;11286;45.596;5.284;2023-05-07T03:33:56;17.50;99.90
22235;DHT22;11286;45.596;5.284;2023-05-07T03:36:22;17.60;99.90
22235;DHT22;11286;45.596;5.284;2023-05-07T03:38:49;17.70;99.90
22235;DHT22;11286;45.596;5.284;2023-05-07T03:41:15;17.60;99.90
22235;DHT22;11286;45.596;5.284;2023-05-07T03:43:41;17.70;99.90
22235;DHT22;11286;45.596;5.284;2023-05-07T03:46:06;17.70;99.90
22235;DHT22;11286;45.596;5.284;2023-05-07T03:48:32;17.60;99.90
22235;DHT22;11286;45.596;5.284;2023-05-07T03:50:58;17.60;99.90
22235;DHT22;11286;45.596;5.284;2023-05-07T03:53:24;17.50;99.90
22235;DHT22;11286;45.596;5.284;2023-05-07T03:55:50;17.60;99.90
22235;DHT22;11286;45.596;5.284;2023-05-07T03:58:16;17.60;99.90
22235;DHT22;11286;45.596;5.284;2023-05-07T04:00:42;17.60;99.90
22235;DHT22;11286;45.596;5.284;2023-05-07T04:03:07;17.60;99.90
22235;DHT22;11286;45.596;5.284;2023-05-07T04:05:33;17.40;99.90
22235;DHT22;11286;45.596;5.284;2023-05-07T04:07:59;17.40;99.90
22235;DHT22;11286;45.596;5.284;2023-05-07T04:10:25;17.40;99.90
22235;DHT22;11286;45.596;5.284;2023-05-07T04:12:51;17.40;99.90
22235;DHT22;11286;45.596;5.284;2023-05-07T04:15:16;17.40;99.90
22235;DHT22;11286;45.596;5.284;2023-05-07T04:17:42;17.40;99.90
22235;DHT22;11286;45.596;5.284;2023-05-07T04:20:15;17.30;99.90
22235;DHT22;11286;45.596;5.284;2023-05-07T04:22:41;17.40;99.90
22235;DHT22;11286;45.596;5.284;2023-05-07T04:25:08;17.30;99.90
22235;DHT22;11286;45.596;5.284;2023-05-07T04:27:36;17.30;99.90
22235;DHT22;11286;45.596;5.284;2023-05-07T04:30:03;17.40;99.90
22235;DHT22;11286;45.596;5.284;2023-05-07T04:32:29;17.40;99.90
22235;DHT22;11286;45.596;5.284;2023-05-07T04:34:56;17.40;99.90
22235;DHT22;11286;45.596;5.284;2023-05-07T04:37:22;17.40;99.90
22235;DHT22;11286;45.596;5.284;2023-05-07T04:39:48;17.40;99.90
22235;DHT22;11286;45.596;5.284;2023-05-07T04:42:17;17.30;99.90
22235;DHT22;11286;45.596;5.284;2023-05-07T04:44:44;17.30;99.90
22235;DHT22;11286;45.596;5.284;2023-05-07T04:47:11;17.30;99.90
22235;DHT22;11286;45.596;5.284;2023-05-07T04:49:37;17.40;99.90
22235;DHT22;11286;45.596;5.284;2023-05-07T04:52:04;17.40;99.90
22235;DHT22;11286;45.596;5.284;2023-05-07T04:54:29;17.40;99.90
22235;DHT22;11286;45.596;5.284;2023-05-07T04:56:55;17.40;99.90
22235;DHT22;11286;45.596;5.284;2023-05-07T04:59:21;17.30;99.90
22235;DHT22;11286;45.596;5.284;2023-05-07T05:01:46;17.40;99.90
22235;DHT22;11286;45.596;5.284;2023-05-07T05:04:12;17.40;99.90
22235;DHT22;11286;45.596;5.284;2023-05-07T05:06:38;17.40;99.90
22235;DHT22;11286;45.596;5.284;2023-05-07T05:09:04;17.40;99.90
22235;DHT22;11286;45.596;5.284;2023-05-07T05:11:30;17.50;99.90
22235;DHT22;11286;45.596;5.284;2023-05-07T05:13:56;17.40;99.90
22235;DHT22;11286;45.596;5.284;2023-05-07T05:16:22;17.50;99.90
22235;DHT22;11286;45.596;5.284;2023-05-07T05:18:47;17.60;99.90
22235;DHT22;11286;45.596;5.284;2023-05-07T05:21:13;17.50;99.90
22235;DHT22;11286;45.596;5.284;2023-05-07T05:23:39;17.50;99.90
22235;DHT22;11286;45.596;5.284;2023-05-07T05:26:05;17.60;99.90
22235;DHT22;11286;45.596;5.284;2023-05-07T05:28:30;17.50;99.90
22235;DHT22;11286;45.596;5.284;2023-05-07T05:30:56;17.30;99.90
22235;DHT22;11286;45.596;5.284;2023-05-07T05:33:21;17.50;99.90
22235;DHT22;11286;45.596;5.284;2023-05-07T05:35:47;17.40;99.90
22235;DHT22;11286;45.596;5.284;2023-05-07T05:38:13;17.50;99.90
22235;DHT22;11286;45.596;5.284;2023-05-07T05:40:39;17.50;99.90
22235;DHT22;11286;45.596;5.284;2023-05-07T05:43:05;17.70;99.90
22235;DHT22;11286;45.596;5.284;2023-05-07T05:45:31;17.70;99.90
22235;DHT22;11286;45.596;5.284;2023-05-07T05:47:57;17.60;99.90
22235;DHT22;11286;45.596;5.284;2023-05-07T05:50:23;17.50;99.90
22235;DHT22;11286;45.596;5.284;2023-05-07T05:52:48;17.40;99.90
22235;DHT22;11286;45.596;5.284;2023-05-07T05:55:14;17.40;99.90
22235;DHT22;11286;45.596;5.284;2023-05-07T05:57:40;17.30;99.90
22235;DHT22;11286;45.596;5.284;2023-05-07T06:00:06;17.50;99.90
22235;DHT22;11286;45.596;5.284;2023-05-07T06:02:33;17.70;99.90
22235;DHT22;11286;45.596;5.284;2023-05-07T06:04:58;17.90;99.90
22235;DHT22;11286;45.596;5.284;2023-05-07T06:07:25;18.10;99.90
22235;DHT22;11286;45.596;5.284;2023-05-07T06:09:50;18.00;99.90
22235;DHT22;11286;45.596;5.284;2023-05-07T06:12:16;18.10;99.90
22235;DHT22;11286;45.596;5.284;2023-05-07T06:14:45;18.30;99.90
22235;DHT22;11286;45.596;5.284;2023-05-07T06:17:10;18.40;99.90
22235;DHT22;11286;45.596;5.284;2023-05-07T06:19:36;18.50;99.90
22235;DHT22;11286;45.596;5.284;2023-05-07T06:22:02;18.50;99.90
22235;DHT22;11286;45.596;5.284;2023-05-07T06:24:28;18.50;99.90
22235;DHT22;11286;45.596;5.284;2023-05-07T06:26:54;18.50;99.90
22235;DHT22;11286;45.596;5.284;2023-05-07T06:29:20;18.60;99.90
22235;DHT22;11286;45.596;5.284;2023-05-07T06:31:45;18.70;99.90
22235;DHT22;11286;45.596;5.284;2023-05-07T06:34:11;19.10;99.90
22235;DHT22;11286;45.596;5.284;2023-05-07T06:36:40;19.30;99.90
22235;DHT22;11286;45.596;5.284;2023-05-07T06:39:06;19.40;99.90
22235;DHT22;11286;45.596;5.284;2023-05-07T06:41:31;19.60;99.90
22235;DHT22;11286;45.596;5.284;2023-05-07T06:43:57;19.60;99.90
22235;DHT22;11286;45.596;5.284;2023-05-07T06:46:23;19.80;99.90
22235;DHT22;11286;45.596;5.284;2023-05-07T06:48:48;20.10;99.90
22235;DHT22;11286;45.596;5.284;2023-05-07T06:51:14;20.30;99.90
22235;DHT22;11286;45.596;5.284;2023-05-07T06:53:40;20.40;99.90
22235;DHT22;11286;45.596;5.284;2023-05-07T06:56:06;20.60;99.90
22235;DHT22;11286;45.596;5.284;2023-05-07T06:58:32;20.60;99.90
22235;DHT22;11286;45.596;5.284;2023-05-07T07:00:57;20.50;99.90
22235;DHT22;11286;45.596;5.284;2023-05-07T07:03:23;20.50;99.90
22235;DHT22;11286;45.596;5.284;2023-05-07T07:05:52;20.50;99.90
22235;DHT22;11286;45.596;5.284;2023-05-07T07:08:18;20.60;99.90
22235;DHT22;11286;45.596;5.284;2023-05-07T07:10:44;20.60;99.90
22235;DHT22;11286;45.596;5.284;2023-05-07T07:13:09;20.70;99.90
22235;DHT22;11286;45.596;5.284;2023-05-07T07:15:35;20.60;99.90
22235;DHT22;11286;45.596;5.284;2023-05-07T07:18:00;20.60;99.90
22235;DHT22;11286;45.596;5.284;2023-05-07T07:20:26;20.70;99.90
22235;DHT22;11286;45.596;5.284;2023-05-07T07:22:53;20.70;99.90
22235;DHT22;11286;45.596;5.284;2023-05-07T07:25:18;20.80;99.90
22235;DHT22;11286;45.596;5.284;2023-05-07T07:27:44;20.80;99.90
22235;DHT22;11286;45.596;5.284;2023-05-07T07:30:10;20.90;99.90
22235;DHT22;11286;45.596;5.284;2023-05-07T07:32:36;21.00;99.90
22235;DHT22;11286;45.596;5.284;2023-05-07T07:35:01;21.00;99.90
22235;DHT22;11286;45.596;5.284;2023-05-07T07:37:27;21.10;99.90
22235;DHT22;11286;45.596;5.284;2023-05-07T07:39:53;21.20;99.90
22235;DHT22;11286;45.596;5.284;2023-05-07T07:42:19;21.20;99.90
22235;DHT22;11286;45.596;5.284;2023-05-07T07:44:44;21.20;99.90
22235;DHT22;11286;45.596;5.284;2023-05-07T07:47:10;21.20;99.90
22235;DHT22;11286;45.596;5.284;2023-05-07T07:49:36;21.10;99.90
22235;DHT22;11286;45.596;5.284;2023-05-07T07:52:01;20.90;99.90
22235;DHT22;11286;45.596;5.284;2023-05-07T07:54:27;20.80;99.90
22235;DHT22;11286;45.596;5.284;2023-05-07T07:56:54;20.60;99.90
22235;DHT22;11286;45.596;5.284;2023-05-07T07:59:20;20.50;99.90
22235;DHT22;11286;45.596;5.284;2023-05-07T08:01:45;20.40;99.90
22235;DHT22;11286;45.596;5.284;2023-05-07T08:04:13;20.40;99.90
22235;DHT22;11286;45.596;5.284;2023-05-07T08:06:39;20.30;99.90
22235;DHT22;11286;45.596;5.284;2023-05-07T08:09:04;20.30;99.90
22235;DHT22;11286;45.596;5.284;2023-05-07T08:11:30;20.30;99.90
22235;DHT22;11286;45.596;5.284;2023-05-07T08:13:56;20.40;99.90
22235;DHT22;11286;45.596;5.284;2023-05-07T08:16:21;20.40;99.90
22235;DHT22;11286;45.596;5.284;2023-05-07T08:18:47;20.40;99.90
22235;DHT22;11286;45.596;5.284;2023-05-07T08:21:13;20.40;99.90
22235;DHT22;11286;45.596;5.284;2023-05-07T08:23:38;20.60;99.90
22235;DHT22;11286;45.596;5.284;2023-05-07T08:26:04;20.50;99.90
22235;DHT22;11286;45.596;5.284;2023-05-07T08:28:29;20.50;99.90
22235;DHT22;11286;45.596;5.284;2023-05-07T08:30:55;20.50;99.90
22235;DHT22;11286;45.596;5.284;2023-05-07T08:33:22;20.60;99.90
22235;DHT22;11286;45.596;5.284;2023-05-07T08:35:47;20.70;99.90
22235;DHT22;11286;45.596;5.284;2023-05-07T08:38:13;20.70;99.90
22235;DHT22;11286;45.596;5.284;2023-05-07T08:40:39;20.80;99.90
22235;DHT22;11286;45.596;5.284;2023-05-07T08:43:06;20.80;99.90
22235;DHT22;11286;45.596;5.284;2023-05-07T08:45:33;20.70;99.90
22235;DHT22;11286;45.596;5.284;2023-05-07T08:48:02;20.80;99.90
22235;DHT22;11286;45.596;5.284;2023-05-07T08:50:29;20.90;99.90
22235;DHT22;11286;45.596;5.284;2023-05-07T08:52:55;20.90;99.90
22235;DHT22;11286;45.596;5.284;2023-05-07T08:55:22;20.80;99.90
22235;DHT22;11286;45.596;5.284;2023-05-07T08:57:48;20.70;99.90
22235;DHT22;11286;45.596;5.284;2023-05-07T09:00:14;20.60;99.90
22235;DHT22;11286;45.596;5.284;2023-05-07T09:02:40;20.50;99.90
22235;DHT22;11286;45.596;5.284;2023-05-07T09:05:06;20.40;99.90
22235;DHT22;11286;45.596;5.284;2023-05-07T09:07:32;20.20;99.90
22235;DHT22;11286;45.596;5.284;2023-05-07T09:09:58;20.20;99.90
22235;DHT22;11286;45.596;5.284;2023-05-07T09:12:24;20.20;99.90
22235;DHT22;11286;45.596;5.284;2023-05-07T09:14:50;20.30;99.90
22235;DHT22;11286;45.596;5.284;2023-05-07T09:17:16;20.20;99.90
22235;DHT22;11286;45.596;5.284;2023-05-07T09:19:44;20.00;99.90
22235;DHT22;11286;45.596;5.284;2023-05-07T09:22:11;20.00;99.90
22235;DHT22;11286;45.596;5.284;2023-05-07T09:24:37;19.90;99.90
22235;DHT22;11286;45.596;5.284;2023-05-07T09:27:06;19.80;99.90
22235;DHT22;11286;45.596;5.284;2023-05-07T09:29:33;19.60;99.90
22235;DHT22;11286;45.596;5.284;2023-05-07T09:32:02;19.30;99.90
22235;DHT22;11286;45.596;5.284;2023-05-07T09:34:31;19.20;99.90
22235;DHT22;11286;45.596;5.284;2023-05-07T09:37:04;19.20;99.90
22235;DHT22;11286;45.596;5.284;2023-05-07T09:39:43;19.00;99.90
22235;DHT22;11286;45.596;5.284;2023-05-07T09:42:09;18.90;99.90
22235;DHT22;11286;45.596;5.284;2023-05-07T09:44:37;18.70;99.90
22235;DHT22;11286;45.596;5.284;2023-05-07T09:47:05;18.80;99.90
22235;DHT22;11286;45.596;5.284;2023-05-07T09:49:36;18.60;99.90
22235;DHT22;11286;45.596;5.284;2023-05-07T09:52:04;18.50;99.90
22235;DHT22;11286;45.596;5.284;2023-05-07T09:54:33;18.40;99.90
22235;DHT22;11286;45.596;5.284;2023-05-07T09:56:59;18.50;99.90
22235;DHT22;11286;45.596;5.284;2023-05-07T09:59:29;18.60;99.90
22235;DHT22;11286;45.596;5.284;2023-05-07T10:01:58;18.40;99.90
22235;DHT22;11286;45.596;5.284;2023-05-07T10:04:28;18.40;99.90
22235;DHT22;11286;45.596;5.284;2023-05-07T10:06:54;18.50;99.90
22235;DHT22;11286;45.596;5.284;2023-05-07T10:09:21;18.60;99.90
22235;DHT22;11286;45.596;5.284;2023-05-07T10:11:49;18.50;99.90
22235;DHT22;11286;45.596;5.284;2023-05-07T10:14:15;18.60;99.90
22235;DHT22;11286;45.596;5.284;2023-05-07T10:16:41;18.60;99.90
22235;DHT22;11286;45.596;5.284;2023-05-07T10:19:08;18.40;99.90
22235;DHT22;11286;45.596;5.284;2023-05-07T10:21:37;18.30;99.90
22235;DHT22;11286;45.596;5.284;2023-05-07T10:24:08;18.40;99.90
22235;DHT22;11286;45.596;5.284;2023-05-07T10:26:43;18.30;99.90
22235;DHT22;11286;45.596;5.284;2023-05-07T10:34:42;18.40;99.90
22235;DHT22;11286;45.596;5.284;2023-05-07T10:37:09;18.40;99.90
22235;DHT22;11286;45.596;5.284;2023-05-07T10:39:35;18.30;99.90
22235;DHT22;11286;45.596;5.284;2023-05-07T10:42:09;18.30;99.90
22235;DHT22;11286;45.596;5.284;2023-05-07T10:44:35;18.30;99.90
22235;DHT22;11286;45.596;5.284;2023-05-07T10:47:07;18.10;99.90
22235;DHT22;11286;45.596;5.284;2023-05-07T10:52:17;18.20;99.90
22235;DHT22;11286;45.596;5.284;2023-05-07T10:54:43;18.20;99.90
22235;DHT22;11286;45.596;5.284;2023-05-07T10:57:42;18.20;99.90
22235;DHT22;11286;45.596;5.284;2023-05-07T11:05:31;18.20;99.90
22235;DHT22;11286;45.596;5.284;2023-05-07T11:08:01;18.30;99.90
22235;DHT22;11286;45.596;5.284;2023-05-07T11:10:56;18.30;99.90
22235;DHT22;11286;45.596;5.284;2023-05-07T11:13:41;18.40;99.90
22235;DHT22;11286;45.596;5.284;2023-05-07T11:16:24;18.40;99.90
22235;DHT22;11286;45.596;5.284;2023-05-07T11:18:51;18.40;99.90
22235;DHT22;11286;45.596;5.284;2023-05-07T11:24:03;18.40;99.90
22235;DHT22;11286;45.596;5.284;2023-05-07T11:26:31;18.50;99.90
22235;DHT22;11286;45.596;5.284;2023-05-07T11:29:11;18.50;99.90
22235;DHT22;11286;45.596;5.284;2023-05-07T11:31:37;18.50;99.90
22235;DHT22;11286;45.596;5.284;2023-05-07T11:34:04;18.50;99.90
22235;DHT22;11286;45.596;5.284;2023-05-07T11:36:32;18.40;99.90
22235;DHT22;11286;45.596;5.284;2023-05-07T11:38:58;18.40;99.90
22235;DHT22;11286;45.596;5.284;2023-05-07T11:41:34;18.50;99.90
22235;DHT22;11286;45.596;5.284;2023-05-07T11:44:00;18.50;99.90
22235;DHT22;11286;45.596;5.284;2023-05-07T11:46:27;18.60;99.90
22235;DHT22;11286;45.596;5.284;2023-05-07T11:48:53;18.70;99.90
22235;DHT22;11286;45.596;5.284;2023-05-07T11:51:24;18.70;99.90
22235;DHT22;11286;45.596;5.284;2023-05-07T11:53:51;18.50;99.90
22235;DHT22;11286;45.596;5.284;2023-05-07T11:56:18;18.60;99.90
22235;DHT22;11286;45.596;5.284;2023-05-07T11:58:45;18.60;99.90
22235;DHT22;11286;45.596;5.284;2023-05-07T12:01:13;18.60;99.90
22235;DHT22;11286;45.596;5.284;2023-05-07T12:03:43;18.60;99.90
22235;DHT22;11286;45.596;5.284;2023-05-07T12:06:09;18.70;99.90
22235;DHT22;11286;45.596;5.284;2023-05-07T12:08:39;18.80;99.90
22235;DHT22;11286;45.596;5.284;2023-05-07T12:11:12;18.80;99.90
22235;DHT22;11286;45.596;5.284;2023-05-07T12:13:38;18.70;99.90
22235;DHT22;11286;45.596;5.284;2023-05-07T12:16:05;18.70;99.90
22235;DHT22;11286;45.596;5.284;2023-05-07T12:18:31;18.80;99.90
22235;DHT22;11286;45.596;5.284;2023-05-07T12:20:57;18.70;99.90
22235;DHT22;11286;45.596;5.284;2023-05-07T12:23:23;18.70;99.90
22235;DHT22;11286;45.596;5.284;2023-05-07T12:25:48;18.80;99.90
22235;DHT22;11286;45.596;5.284;2023-05-07T12:28:16;18.80;99.90
22235;DHT22;11286;45.596;5.284;2023-05-07T12:30:46;18.60;99.90
22235;DHT22;11286;45.596;5.284;2023-05-07T12:33:20;18.70;99.90
22235;DHT22;11286;45.596;5.284;2023-05-07T12:35:48;18.60;99.90
22235;DHT22;11286;45.596;5.284;2023-05-07T12:38:16;18.70;99.90
22235;DHT22;11286;45.596;5.284;2023-05-07T12:40:47;18.60;99.90
22235;DHT22;11286;45.596;5.284;2023-05-07T12:43:20;18.80;99.90
22235;DHT22;11286;45.596;5.284;2023-05-07T12:45:50;19.00;99.90
22235;DHT22;11286;45.596;5.284;2023-05-07T12:48:17;18.90;99.90
22235;DHT22;11286;45.596;5.284;2023-05-07T12:50:43;18.70;99.90
22235;DHT22;11286;45.596;5.284;2023-05-07T12:53:10;18.80;99.90
22235;DHT22;11286;45.596;5.284;2023-05-07T12:55:56;18.70;99.90
22235;DHT22;11286;45.596;5.284;2023-05-07T12:58:30;18.80;99.90
22235;DHT22;11286;45.596;5.284;2023-05-07T13:00:57;18.90;99.90
22235;DHT22;11286;45.596;5.284;2023-05-07T13:03:34;18.90;99.90
22235;DHT22;11286;45.596;5.284;2023-05-07T13:06:05;18.90;99.90
22235;DHT22;11286;45.596;5.284;2023-05-07T13:08:36;18.80;99.90
22235;DHT22;11286;45.596;5.284;2023-05-07T13:11:12;18.70;99.90
22235;DHT22;11286;45.596;5.284;2023-05-07T13:13:39;19.00;99.90
22235;DHT22;11286;45.596;5.284;2023-05-07T13:16:06;19.00;99.90
22235;DHT22;11286;45.596;5.284;2023-05-07T13:18:33;19.00;99.90
22235;DHT22;11286;45.596;5.284;2023-05-07T13:20:59;18.70;99.90
22235;DHT22;11286;45.596;5.284;2023-05-07T13:23:26;18.70;99.90
22235;DHT22;11286;45.596;5.284;2023-05-07T13:25:51;18.80;99.90
22235;DHT22;11286;45.596;5.284;2023-05-07T13:28:21;18.80;99.90
22235;DHT22;11286;45.596;5.284;2023-05-07T13:30:47;18.80;99.90
22235;DHT22;11286;45.596;5.284;2023-05-07T13:33:13;18.90;99.90
22235;DHT22;11286;45.596;5.284;2023-05-07T13:35:39;18.80;99.90
22235;DHT22;11286;45.596;5.284;2023-05-07T13:38:05;18.70;99.90
22235;DHT22;11286;45.596;5.284;2023-05-07T13:40:31;18.70;99.90
22235;DHT22;11286;45.596;5.284;2023-05-07T13:42:58;18.80;99.90
22235;DHT22;11286;45.596;5.284;2023-05-07T13:45:25;18.80;99.90
22235;DHT22;11286;45.596;5.284;2023-05-07T13:47:51;18.80;99.90
22235;DHT22;11286;45.596;5.284;2023-05-07T13:50:17;18.70;99.90
22235;DHT22;11286;45.596;5.284;2023-05-07T13:52:44;18.60;99.90
22235;DHT22;11286;45.596;5.284;2023-05-07T13:55:19;18.50;99.90
22235;DHT22;11286;45.596;5.284;2023-05-07T13:57:46;18.60;99.90
22235;DHT22;11286;45.596;5.284;2023-05-07T14:00:13;18.60;99.90
22235;DHT22;11286;45.596;5.284;2023-05-07T14:02:38;18.50;99.90
22235;DHT22;11286;45.596;5.284;2023-05-07T14:05:04;18.50;99.90
22235;DHT22;11286;45.596;5.284;2023-05-07T14:07:30;18.60;99.90
22235;DHT22;11286;45.596;5.284;2023-05-07T14:09:56;18.70;99.90
22235;DHT22;11286;45.596;5.284;2023-05-07T14:12:22;18.80;99.90
22235;DHT22;11286;45.596;5.284;2023-05-07T14:14:47;18.80;99.90
22235;DHT22;11286;45.596;5.284;2023-05-07T14:17:16;18.90;99.90
22235;DHT22;11286;45.596;5.284;2023-05-07T14:19:42;19.10;99.90
22235;DHT22;11286;45.596;5.284;2023-05-07T14:22:08;19.40;99.90
22235;DHT22;11286;45.596;5.284;2023-05-07T14:24:33;19.40;99.90
22235;DHT22;11286;45.596;5.284;2023-05-07T14:26:59;19.30;99.90
22235;DHT22;11286;45.596;5.284;2023-05-07T14:29:25;19.40;99.90
22235;DHT22;11286;45.596;5.284;2023-05-07T14:31:51;19.40;99.90
22235;DHT22;11286;45.596;5.284;2023-05-07T14:34:16;19.40;99.90
22235;DHT22;11286;45.596;5.284;2023-05-07T14:36:42;19.60;99.90
22235;DHT22;11286;45.596;5.284;2023-05-07T14:39:09;19.60;99.90
22235;DHT22;11286;45.596;5.284;2023-05-07T14:41:35;19.50;99.90
22235;DHT22;11286;45.596;5.284;2023-05-07T14:44:00;19.40;99.90
22235;DHT22;11286;45.596;5.284;2023-05-07T14:46:27;19.50;99.90
22235;DHT22;11286;45.596;5.284;2023-05-07T14:48:52;19.20;99.90
22235;DHT22;11286;45.596;5.284;2023-05-07T14:51:18;19.10;99.90
22235;DHT22;11286;45.596;5.284;2023-05-07T14:53:44;19.10;99.90
22235;DHT22;11286;45.596;5.284;2023-05-07T14:56:10;19.00;99.90
22235;DHT22;11286;45.596;5.284;2023-05-07T14:58:36;19.00;99.90
22235;DHT22;11286;45.596;5.284;2023-05-07T15:01:03;19.00;99.90
22235;DHT22;11286;45.596;5.284;2023-05-07T15:03:28;19.00;99.90
22235;DHT22;11286;45.596;5.284;2023-05-07T15:05:54;18.90;99.90
22235;DHT22;11286;45.596;5.284;2023-05-07T15:08:20;18.90;99.90
22235;DHT22;11286;45.596;5.284;2023-05-07T15:10:46;18.90;99.90
22235;DHT22;11286;45.596;5.284;2023-05-07T15:13:12;18.80;99.90
22235;DHT22;11286;45.596;5.284;2023-05-07T15:15:42;18.90;99.90
22235;DHT22;11286;45.596;5.284;2023-05-07T15:18:09;19.00;99.90
22235;DHT22;11286;45.596;5.284;2023-05-07T15:20:36;19.00;99.90
22235;DHT22;11286;45.596;5.284;2023-05-07T15:23:01;18.90;99.90
22235;DHT22;11286;45.596;5.284;2023-05-07T15:25:28;18.80;99.90
22235;DHT22;11286;45.596;5.284;2023-05-07T15:27:53;19.00;99.90
22235;DHT22;11286;45.596;5.284;2023-05-07T15:30:19;19.00;99.90
22235;DHT22;11286;45.596;5.284;2023-05-07T15:32:45;19.00;99.90
22235;DHT22;11286;45.596;5.284;2023-05-07T15:35:11;18.90;99.90
22235;DHT22;11286;45.596;5.284;2023-05-07T15:37:37;18.90;99.90
22235;DHT22;11286;45.596;5.284;2023-05-07T15:40:02;18.80;99.90
22235;DHT22;11286;45.596;5.284;2023-05-07T15:42:30;18.70;99.90
22235;DHT22;11286;45.596;5.284;2023-05-07T15:44:56;18.70;99.90